82TX weather

St Joseph Hospital Heliport
Bryan, Texas, United States

Public forecast

Using degrees Fahrenheit for public forecast. Weather courtesy of forecast.io.

METAR (pilot weather report)

Closest report is Coulter Field, 3.6 nm (6.7 km) NNE. Retrieved 2019/09/23 18:35 UTC (1 minute ago):

KCFD 231835Z AUTO 20006KT 10SM SCT044 BKN050 33/23 A3003 RMK AO2 T03320225

TAF (pilot weather forecast)

Closest forecast is Easterwood Field, 4.2 nm (7.8 km) SSW. Retrieved 2019/09/23 18:24 UTC (12 minutes ago):

TAF KCLL 231723Z 2318/2418 16007KT P6SM SCT045 FM240100 15006KT P6SM SCT250 FM241000 00000KT P6SM BKN022 FM241200 00000KT P6SM BKN014 FM241500 18006KT P6SM FEW021 SCT023